Main page
METAR-TAF:

METAR-TAF

Airports :

Beauvechain Air Base

Beauvechain, Belgium

latitude: 50-45N, longitude: 004-46E, elevation: 105 m

Current weather observation

The report was made 21 minutes ago, at 19:25 UTC
Wind 7 kt from the North/Northwest
Temperature 5°C
Humidity 65%
Pressure 1018 hPa
Visibility 10 km or more

METAR: EBBE 011925Z AUTO 34007KT 9999 NCD 05/M01 Q1018 BLU

Time: 21:46 (19:46 UTC)

Forecast

The report was made 4 hours and 5 minutes ago, at 15:41 UTC
Forecast valid from 01 at 19 UTC to 02 at 07 UTC
Wind 3 kt from variable directions
Visibility 10 km or more
Clear sky
Becoming
from 02 at 03 UTC to 02 at 05 UTC
Scattered clouds at a height of 3000 ft
Scattered clouds at a height of 15000 ft

TAF: EBBE 011541Z 0119/0207 VRB03KT 9999 SKC BECMG 0203/0205 SCT030 SCT150

Weather observations and forecasts of more than 4000 airports (METAR and TAF reports).

The available stations are represented by yellow and red dots on the map.

Hover mouse over dot to see the name of the station.

Then click to see weather observations and forecasts.

To change the map : click on the green buttons with a black cross to zoom in, on the green button with a dash to zoom out, or on the green arrows for adjacent maps.


METAR-TAF: